Time;durP1;ratioP1;P1;durP2;ratioP2;P2;SDS_P1;SDS_P2;PMS_P1;PMS_P2;Temp;Humidity;BMP_temperature;BMP_pressure;BME280_temperature;BME280_humidity;BME280_pressure;Samples;Min_cycle;Max_cycle;Signal;HPM_P1;HPM_P2
2024/03/06 00:04:26;;;;;;;22.38;8.85;;;;;;;;;;10512308;28;20040;-76
2024/03/06 00:09:30;;;;;;;19.25;8.50;;;;;;;;;;10519548;28;20143;-76
2024/03/06 00:14:33;;;;;;;22.88;9.15;;;;;;;;;;10519292;28;20481;-75
2024/03/06 00:19:38;;;;;;;20.80;8.10;;;;;;;;;;10513334;28;20048;-77
2024/03/06 00:24:41;;;;;;;23.27;9.10;;;;;;;;;;10511260;28;20048;-76
2024/03/06 00:29:44;;;;;;;22.20;8.68;;;;;;;;;;10514857;28;20036;-76
2024/03/06 00:34:48;;;;;;;19.52;8.52;;;;;;;;;;10512798;28;20048;-77
2024/03/06 00:39:51;;;;;;;21.80;9.02;;;;;;;;;;10517286;28;20106;-76
2024/03/06 00:44:53;;;;;;;20.08;8.10;;;;;;;;;;10525268;28;20455;-77
2024/03/06 00:49:57;;;;;;;23.92;9.52;;;;;;;;;;10516135;28;20048;-78
2024/03/06 00:55:00;;;;;;;22.20;8.63;;;;;;;;;;10508707;28;20102;-75
2024/03/06 01:00:06;;;;;;;23.38;9.38;;;;;;;;;;10518933;28;20044;-76
2024/03/06 01:05:10;;;;;;;19.42;8.63;;;;;;;;;;10520392;28;20112;-76
2024/03/06 01:10:13;;;;;;;19.67;8.02;;;;;;;;;;10527817;28;20396;-75
2024/03/06 01:15:15;;;;;;;18.70;8.02;;;;;;;;;;10517718;28;20083;-77
2024/03/06 01:20:20;;;;;;;24.00;9.50;;;;;;;;;;10518817;28;20045;-78
2024/03/06 01:25:24;;;;;;;22.60;8.75;;;;;;;;;;10511368;28;20076;-76
2024/03/06 01:30:27;;;;;;;23.65;9.77;;;;;;;;;;10508970;28;20040;-76
2024/03/06 01:35:31;;;;;;;22.95;8.65;;;;;;;;;;10504423;28;20047;-76
2024/03/06 01:40:33;;;;;;;;;;;;;;;;;;10509128;28;20490;-77
2024/03/06 01:45:37;;;;;;;28.15;11.02;;;;;;;;;;10505466;28;19947;-77
2024/03/06 01:50:41;;;;;;;25.37;10.17;;;;;;;;;;10511154;28;20092;-76
2024/03/06 01:55:44;;;;;;;27.73;10.90;;;;;;;;;;10511017;28;20449;-78
2024/03/06 02:00:47;;;;;;;28.23;10.93;;;;;;;;;;10514161;28;20262;-76
2024/03/06 02:05:52;;;;;;;27.48;10.18;;;;;;;;;;10510194;28;20051;-76
2024/03/06 02:10:55;;;;;;;27.88;11.35;;;;;;;;;;10509632;28;20041;-77
2024/03/06 02:15:58;;;;;;;26.23;10.38;;;;;;;;;;10492085;28;20419;-76
2024/03/06 02:21:02;;;;;;;29.42;10.98;;;;;;;;;;10512241;28;20457;-77
2024/03/06 02:26:07;;;;;;;29.70;11.00;;;;;;;;;;10522380;28;20119;-75
2024/03/06 02:31:11;;;;;;;29.98;11.45;;;;;;;;;;10506605;28;20047;-76
2024/03/06 02:36:16;;;;;;;29.88;11.13;;;;;;;;;;10519657;28;20055;-77
2024/03/06 02:41:19;;;;;;;29.83;11.23;;;;;;;;;;10508615;28;20060;-77
2024/03/06 02:46:22;;;;;;;28.15;11.15;;;;;;;;;;10506639;28;20072;-77
2024/03/06 02:51:26;;;;;;;32.15;10.48;;;;;;;;;;10528814;28;20433;-76
2024/03/06 02:56:29;;;;;;;25.58;10.15;;;;;;;;;;10507582;28;20071;-77
2024/03/06 03:01:31;;;;;;;32.38;9.90;;;;;;;;;;10521932;28;20149;-77
2024/03/06 03:06:35;;;;;;;29.50;9.70;;;;;;;;;;10520264;28;20123;-75
2024/03/06 03:11:38;;;;;;;27.30;9.55;;;;;;;;;;10513891;28;20440;-77
2024/03/06 03:16:41;;;;;;;25.83;9.65;;;;;;;;;;10507412;28;20550;-74
2024/03/06 03:21:46;;;;;;;24.35;8.73;;;;;;;;;;10503412;28;20040;-75
2024/03/06 03:26:48;;;;;;;24.17;8.85;;;;;;;;;;10500931;28;20478;-77
2024/03/06 03:31:51;;;;;;;25.60;9.00;;;;;;;;;;10512666;28;20044;-76
2024/03/06 03:36:55;;;;;;;23.55;8.02;;;;;;;;;;10513826;28;20130;-76
2024/03/06 03:41:58;;;;;;;24.70;8.90;;;;;;;;;;10514045;28;20072;-76
2024/03/06 03:47:00;;;;;;;7.63;2.50;;;;;;;;;;10504673;28;20167;-75
2024/03/06 03:52:05;;;;;;;9.07;3.53;;;;;;;;;;10503542;28;20123;-76
2024/03/06 03:57:08;;;;;;;;;;;;;;;;;;10498075;28;20060;-77
2024/03/06 04:02:10;;;;;;;5.97;2.72;;;;;;;;;;10510938;28;21490;-76
2024/03/06 04:07:16;;;;;;;7.05;2.25;;;;;;;;;;10513857;28;20046;-78
2024/03/06 04:12:19;;;;;;;6.40;2.97;;;;;;;;;;10514062;28;20039;-77
2024/03/06 04:17:22;;;;;;;5.78;2.38;;;;;;;;;;10525980;28;20090;-76
2024/03/06 04:22:26;;;;;;;10.45;3.45;;;;;;;;;;10513351;28;20130;-75
2024/03/06 04:27:28;;;;;;;;;;;;;;;;;;10521218;28;20457;-75
2024/03/06 04:32:31;;;;;;;17.75;6.05;;;;;;;;;;10525781;28;19920;-74
2024/03/06 04:37:35;;;;;;;17.33;6.03;;;;;;;;;;10524380;28;20067;-75
2024/03/06 04:42:38;;;;;;;22.15;7.93;;;;;;;;;;10518154;28;20055;-76
2024/03/06 04:47:41;;;;;;;27.40;8.02;;;;;;;;;;10528831;28;20048;-76
2024/03/06 04:52:46;;;;;;;17.45;6.70;;;;;;;;;;10523887;28;20064;-77
2024/03/06 04:57:49;;;;;;;20.92;6.97;;;;;;;;;;10512945;28;20055;-76
2024/03/06 05:02:52;;;;;;;27.10;7.77;;;;;;;;;;10530271;28;20064;-76
2024/03/06 05:08:13;;;;;;;24.45;8.13;;;;;;;;;;10519863;28;20032;-77
2024/03/06 05:13:34;;;;;;;16.88;5.72;;;;;;;;;;10519567;28;20044;-76
2024/03/06 05:18:55;;;;;;;17.50;6.05;;;;;;;;;;10525845;28;20125;-76
2024/03/06 05:24:17;;;;;;;4.10;1.50;;;;;;;;;;10517822;28;20113;-77
2024/03/06 05:29:37;;;;;;;1.58;1.17;;;;;;;;;;10524408;28;20105;-75
2024/03/06 05:34:58;;;;;;;2.90;1.65;;;;;;;;;;10523746;28;20042;-76
2024/03/06 05:40:20;;;;;;;2.97;2.05;;;;;;;;;;10508057;28;20130;-76
2024/03/06 05:45:40;;;;;;;2.20;1.02;;;;;;;;;;10515846;28;20050;-75
2024/03/06 05:51:01;;;;;;;5.20;2.25;;;;;;;;;;10520712;28;20433;-75
2024/03/06 05:56:22;;;;;;;2.30;1.35;;;;;;;;;;10524945;28;20090;-76
2024/03/06 06:01:44;;;;;;;4.43;1.88;;;;;;;;;;10532582;28;20122;-76
2024/03/06 06:06:47;;;;;;;6.32;2.70;;;;;;;;;;10521602;28;20498;-76
2024/03/06 06:11:51;;;;;;;1.90;1.33;;;;;;;;;;10498419;28;20036;-75
2024/03/06 06:16:54;;;;;;;6.20;2.55;;;;;;;;;;10508693;28;20058;-75
2024/03/06 06:21:57;;;;;;;7.18;3.10;;;;;;;;;;10488899;28;20040;-75
2024/03/06 06:27:02;;;;;;;7.80;3.08;;;;;;;;;;10506962;28;20033;-75
2024/03/06 06:32:05;;;;;;;3.95;1.92;;;;;;;;;;10508706;28;20115;-75
2024/03/06 06:37:08;;;;;;;6.33;2.50;;;;;;;;;;10490041;28;20122;-76
2024/03/06 06:42:12;;;;;;;7.53;2.72;;;;;;;;;;10515040;28;20048;-77
2024/03/06 06:47:15;;;;;;;5.10;2.33;;;;;;;;;;10504898;28;20060;-75
2024/03/06 06:52:18;;;;;;;8.90;3.40;;;;;;;;;;10510454;28;20063;-76
2024/03/06 06:57:22;;;;;;;9.43;3.08;;;;;;;;;;10505077;28;20044;-76
2024/03/06 07:02:24;;;;;;;9.38;3.67;;;;;;;;;;10509852;28;20452;-76
2024/03/06 07:07:27;;;;;;;5.85;2.88;;;;;;;;;;10498158;28;20040;-76
2024/03/06 07:12:32;;;;;;;8.27;3.67;;;;;;;;;;10506300;28;20044;-75
2024/03/06 07:17:34;;;;;;;7.75;3.00;;;;;;;;;;10516867;28;20032;-75
2024/03/06 07:22:37;;;;;;;8.70;3.50;;;;;;;;;;10513393;28;20064;-74
2024/03/06 07:27:42;;;;;;;5.47;2.30;;;;;;;;;;10513127;28;20585;-74
2024/03/06 07:32:45;;;;;;;8.77;3.42;;;;;;;;;;10513058;28;20049;-76
2024/03/06 07:37:48;;;;;;;9.50;3.25;;;;;;;;;;10508803;28;20528;-75
2024/03/06 07:42:53;;;;;;;6.18;2.47;;;;;;;;;;10507040;28;20037;-75
2024/03/06 07:47:55;;;;;;;7.30;3.22;;;;;;;;;;10511310;28;20135;-75
2024/03/06 07:52:58;;;;;;;6.78;2.55;;;;;;;;;;10514100;28;20240;-74
2024/03/06 07:58:02;;;;;;;6.78;2.50;;;;;;;;;;10522435;28;20561;-76
2024/03/06 08:03:06;;;;;;;7.03;3.13;;;;;;;;;;10523888;28;20138;-76
2024/03/06 08:08:09;;;;;;;5.00;1.77;;;;;;;;;;10527288;28;20466;-76
2024/03/06 08:13:13;;;;;;;5.43;2.60;;;;;;;;;;10519574;28;20359;-77
2024/03/06 08:18:16;;;;;;;7.90;3.22;;;;;;;;;;10516374;28;20441;-74
2024/03/06 08:23:19;;;;;;;6.93;3.23;;;;;;;;;;10522197;28;20051;-75
2024/03/06 08:28:24;;;;;;;5.37;2.60;;;;;;;;;;10520260;28;20155;-77
2024/03/06 08:33:26;;;;;;;7.22;2.80;;;;;;;;;;10521624;28;20785;-76
2024/03/06 08:38:29;;;;;;;5.53;2.78;;;;;;;;;;10513093;28;20044;-75
2024/03/06 08:43:33;;;;;;;7.50;3.05;;;;;;;;;;10520784;28;20528;-75
2024/03/06 08:48:37;;;;;;;7.88;2.97;;;;;;;;;;10523514;28;20136;-77
2024/03/06 08:53:40;;;;;;;7.70;3.20;;;;;;;;;;10526442;28;20047;-75
2024/03/06 08:58:44;;;;;;;8.02;3.33;;;;;;;;;;10525473;28;20044;-75
2024/03/06 09:03:47;;;;;;;5.88;2.38;;;;;;;;;;10520774;28;20493;-74
2024/03/06 09:08:49;;;;;;;6.75;3.15;;;;;;;;;;10524460;28;20517;-76
2024/03/06 09:13:54;;;;;;;5.78;2.67;;;;;;;;;;10518355;28;20060;-75
2024/03/06 09:18:56;;;;;;;;;;;;;;;;;;10518712;28;20500;-75
2024/03/06 09:23:59;;;;;;;6.78;2.88;;;;;;;;;;10522005;28;20446;-75
2024/03/06 09:29:04;;;;;;;13.38;3.47;;;;;;;;;;10527000;28;20043;-74
2024/03/06 09:34:06;;;;;;;7.13;3.47;;;;;;;;;;10529886;28;20040;-75
2024/03/06 09:39:09;;;;;;;7.32;3.53;;;;;;;;;;10517984;28;20039;-76
2024/03/06 09:44:14;;;;;;;9.15;3.50;;;;;;;;;;10511994;28;20519;-75
2024/03/06 09:49:18;;;;;;;8.10;3.50;;;;;;;;;;10500445;28;20052;-75
2024/03/06 09:54:21;;;;;;;8.57;3.72;;;;;;;;;;10518957;28;20578;-76
2024/03/06 09:59:27;;;;;;;8.38;3.95;;;;;;;;;;10516778;28;20040;-76
2024/03/06 10:04:29;;;;;;;8.77;3.38;;;;;;;;;;10512559;28;20459;-76
2024/03/06 10:09:33;;;;;;;7.22;3.17;;;;;;;;;;10520474;28;20099;-76
2024/03/06 10:14:38;;;;;;;13.43;4.78;;;;;;;;;;10508144;28;20094;-75
2024/03/06 10:19:45;;;;;;;14.27;5.88;;;;;;;;;;10507619;28;20542;-76
2024/03/06 10:24:48;;;;;;;17.23;7.28;;;;;;;;;;10512846;28;20044;-75
2024/03/06 10:30:03;;;;;;;17.70;6.68;;;;;;;;;;10514821;28;20135;-76
2024/03/06 10:35:09;;;;;;;9.05;3.90;;;;;;;;;;10511175;28;20044;-78
2024/03/06 10:40:13;;;;;;;;;;;;;;;;;;10520589;28;20494;-74
2024/03/06 10:45:20;;;;;;;7.03;3.58;;;;;;;;;;10515194;28;20267;-76
2024/03/06 10:50:23;;;;;;;10.00;4.22;;;;;;;;;;10510288;28;20043;-76
2024/03/06 10:55:29;;;;;;;13.03;4.43;;;;;;;;;;10508284;28;20040;-77
2024/03/06 11:00:33;;;;;;;8.77;3.72;;;;;;;;;;10514519;28;20465;-76
2024/03/06 11:05:39;;;;;;;12.07;3.10;;;;;;;;;;10511930;28;20128;-76
2024/03/06 11:10:42;;;;;;;8.07;3.60;;;;;;;;;;10514146;28;20076;-74
2024/03/06 11:15:46;;;;;;;12.48;4.40;;;;;;;;;;10506305;28;20479;-76
2024/03/06 11:20:49;;;;;;;;;;;;;;;;;;10508079;28;20040;-75
2024/03/06 11:26:02;;;;;;;6.53;2.50;;;;;;;;;;10509940;28;20043;-76
2024/03/06 11:31:11;;;;;;;8.43;3.55;;;;;;;;;;10522734;28;20036;-76
2024/03/06 11:36:16;;;;;;;9.35;3.97;;;;;;;;;;10498131;28;20032;-75
2024/03/06 11:41:20;;;;;;;6.03;2.60;;;;;;;;;;10508420;28;20043;-75
2024/03/06 11:46:41;;;;;;;10.15;4.70;;;;;;;;;;10509557;28;20043;-75
2024/03/06 11:51:47;;;;;;;11.85;4.95;;;;;;;;;;10515991;28;20052;-75
2024/03/06 11:56:51;;;;;;;12.38;4.68;;;;;;;;;;10497398;28;20052;-75
2024/03/06 12:01:54;;;;;;;19.17;5.30;;;;;;;;;;10503565;28;20090;-75
2024/03/06 12:06:59;;;;;;;13.00;5.25;;;;;;;;;;10505158;28;20100;-75
2024/03/06 12:12:03;;;;;;;8.32;3.70;;;;;;;;;;10509902;28;20036;-76
2024/03/06 12:17:07;;;;;;;14.32;5.60;;;;;;;;;;10506752;28;20040;-75
2024/03/06 12:22:12;;;;;;;12.43;4.78;;;;;;;;;;10506347;28;20044;-75
2024/03/06 12:27:15;;;;;;;8.32;3.65;;;;;;;;;;10505219;28;20085;-74
2024/03/06 12:32:18;;;;;;;11.93;3.67;;;;;;;;;;10506969;28;20044;-75
2024/03/06 12:37:30;;;;;;;12.80;4.78;;;;;;;;;;10503631;28;20055;-76
2024/03/06 12:42:34;;;;;;;11.30;4.88;;;;;;;;;;10501817;28;20460;-75
2024/03/06 12:47:37;;;;;;;9.57;3.72;;;;;;;;;;10518268;28;20114;-76
2024/03/06 12:52:44;;;;;;;10.57;4.00;;;;;;;;;;10516589;28;20044;-76
2024/03/06 12:57:47;;;;;;;11.50;4.70;;;;;;;;;;10500826;28;20070;-77
2024/03/06 13:02:51;;;;;;;8.07;3.28;;;;;;;;;;10523629;28;20067;-77
2024/03/06 13:07:55;;;;;;;11.10;4.70;;;;;;;;;;10518465;28;20039;-75
2024/03/06 13:12:58;;;;;;;11.75;4.80;;;;;;;;;;10507810;28;20040;-75
2024/03/06 13:18:03;;;;;;;9.48;3.53;;;;;;;;;;10529363;28;20040;-75
2024/03/06 13:23:07;;;;;;;5.32;2.17;;;;;;;;;;10513084;28;20127;-75
2024/03/06 13:28:10;;;;;;;13.75;4.50;;;;;;;;;;10518807;28;20040;-76
2024/03/06 13:33:13;;;;;;;8.90;4.03;;;;;;;;;;10521789;28;20082;-76
2024/03/06 13:38:17;;;;;;;10.98;3.92;;;;;;;;;;10512627;28;20040;-75
2024/03/06 13:43:22;;;;;;;8.98;3.33;;;;;;;;;;10511860;28;20036;-75
2024/03/06 13:48:26;;;;;;;12.02;4.22;;;;;;;;;;10508136;28;20033;-75
2024/03/06 13:53:31;;;;;;;12.88;4.45;;;;;;;;;;10515589;28;20540;-76
2024/03/06 13:58:34;;;;;;;11.30;3.75;;;;;;;;;;10516081;28;20052;-77
2024/03/06 14:03:39;;;;;;;10.63;4.07;;;;;;;;;;10498770;28;20174;-77
2024/03/06 14:08:43;;;;;;;9.80;4.13;;;;;;;;;;10495861;28;20295;-75
2024/03/06 14:13:46;;;;;;;9.13;3.28;;;;;;;;;;10509791;28;20490;-77
2024/03/06 14:18:49;;;;;;;7.13;2.72;;;;;;;;;;10515936;28;20122;-76
2024/03/06 14:23:53;;;;;;;6.53;2.17;;;;;;;;;;10510943;28;20050;-77
2024/03/06 14:28:56;;;;;;;3.05;1.63;;;;;;;;;;10504660;28;20119;-77
2024/03/06 14:33:59;;;;;;;8.88;3.30;;;;;;;;;;10514627;28;20051;-76
2024/03/06 14:39:10;;;;;;;6.70;3.22;;;;;;;;;;10519949;28;20458;-77
2024/03/06 14:44:13;;;;;;;7.10;3.33;;;;;;;;;;10517189;28;20046;-76
2024/03/06 14:49:17;;;;;;;9.02;3.13;;;;;;;;;;10493910;28;20037;-77
2024/03/06 14:54:22;;;;;;;6.15;3.00;;;;;;;;;;10524002;28;20086;-75
2024/03/06 14:59:26;;;;;;;8.57;2.65;;;;;;;;;;10509523;28;20540;-76
2024/03/06 15:04:28;;;;;;;4.50;1.77;;;;;;;;;;10516436;28;20093;-76
2024/03/06 15:09:33;;;;;;;7.72;3.28;;;;;;;;;;10518096;28;20043;-75
2024/03/06 15:14:36;;;;;;;5.85;2.55;;;;;;;;;;10513725;28;20040;-75
2024/03/06 15:19:48;;;;;;;9.00;2.90;;;;;;;;;;10517555;28;20048;-79
2024/03/06 15:24:54;;;;;;;8.60;2.97;;;;;;;;;;10502854;28;20076;-76
2024/03/06 15:29:57;;;;;;;2.95;1.33;;;;;;;;;;10504466;28;20051;-77
2024/03/06 15:35:00;;;;;;;11.95;4.30;;;;;;;;;;10494752;28;20041;-77
2024/03/06 15:40:06;;;;;;;10.35;4.07;;;;;;;;;;10517974;28;20505;-76
2024/03/06 15:45:09;;;;;;;7.68;3.15;;;;;;;;;;10522605;28;20127;-77
2024/03/06 15:50:13;;;;;;;2.65;1.25;;;;;;;;;;10496959;28;20028;-75
2024/03/06 15:55:17;;;;;;;8.53;3.10;;;;;;;;;;10522924;28;20142;-75
2024/03/06 16:00:19;;;;;;;8.70;3.15;;;;;;;;;;10518713;28;20036;-75
2024/03/06 16:05:22;;;;;;;12.65;4.55;;;;;;;;;;10522399;28;20099;-78
2024/03/06 16:10:26;;;;;;;9.02;3.38;;;;;;;;;;10500745;28;20052;-77
2024/03/06 16:15:29;;;;;;;9.57;3.95;;;;;;;;;;10513014;28;20048;-76
2024/03/06 16:20:32;;;;;;;8.43;3.60;;;;;;;;;;10509304;28;20040;-76
2024/03/06 16:25:36;;;;;;;8.82;3.60;;;;;;;;;;10531725;28;20055;-77
2024/03/06 16:30:39;;;;;;;5.55;2.35;;;;;;;;;;10505916;28;20819;-76
2024/03/06 16:35:42;;;;;;;5.13;2.72;;;;;;;;;;10529641;28;20056;-75
2024/03/06 16:40:46;;;;;;;3.70;1.45;;;;;;;;;;10525055;28;20077;-76
2024/03/06 16:45:49;;;;;;;7.28;2.95;;;;;;;;;;10524969;28;20528;-76
2024/03/06 16:50:52;;;;;;;8.73;3.50;;;;;;;;;;10522047;28;20040;-77
2024/03/06 16:55:56;;;;;;;7.88;3.33;;;;;;;;;;10517991;28;20048;-77
2024/03/06 17:00:59;;;;;;;;;;;;;;;;;;10531901;28;20036;-78
2024/03/06 17:06:02;;;;;;;4.63;2.13;;;;;;;;;;10518354;28;19920;-76
2024/03/06 17:11:08;;;;;;;7.88;3.28;;;;;;;;;;10533802;28;20067;-76
2024/03/06 17:16:11;;;;;;;5.35;1.85;;;;;;;;;;10517666;28;20044;-75
2024/03/06 17:21:14;;;;;;;9.23;4.28;;;;;;;;;;10511252;28;20448;-77
2024/03/06 17:26:18;;;;;;;5.55;2.38;;;;;;;;;;10505958;28;20515;-76
2024/03/06 17:31:21;;;;;;;6.93;3.05;;;;;;;;;;10525029;28;20128;-76
2024/03/06 17:36:24;;;;;;;9.15;4.25;;;;;;;;;;10523502;28;20055;-76
2024/03/06 17:41:28;;;;;;;6.20;2.20;;;;;;;;;;10507330;28;20064;-76
2024/03/06 17:46:31;;;;;;;9.05;3.60;;;;;;;;;;10509485;28;20067;-76
2024/03/06 17:51:34;;;;;;;4.82;2.17;;;;;;;;;;10505959;28;20040;-75
2024/03/06 17:56:39;;;;;;;8.02;3.05;;;;;;;;;;10511877;28;20397;-75
2024/03/06 18:01:42;;;;;;;6.07;2.50;;;;;;;;;;10522018;28;20088;-75
2024/03/06 18:06:44;;;;;;;8.90;3.55;;;;;;;;;;10503449;28;20040;-75
2024/03/06 18:11:51;;;;;;;7.78;2.97;;;;;;;;;;10502179;28;20059;-75
2024/03/06 18:16:54;;;;;;;9.85;3.50;;;;;;;;;;10517543;28;20091;-76
2024/03/06 18:21:57;;;;;;;6.40;3.17;;;;;;;;;;10513237;28;20098;-76
2024/03/06 18:27:01;;;;;;;5.70;2.95;;;;;;;;;;10500892;28;20503;-77
2024/03/06 18:32:03;;;;;;;;;;;;;;;;;;10508901;28;20102;-75
2024/03/06 18:37:06;;;;;;;5.13;2.63;;;;;;;;;;10524270;28;20018;-76
2024/03/06 18:42:10;;;;;;;6.20;2.45;;;;;;;;;;10502101;28;20038;-75
2024/03/06 18:47:23;;;;;;;5.97;3.60;;;;;;;;;;10499554;28;20048;-76
2024/03/06 18:52:26;;;;;;;9.88;4.85;;;;;;;;;;10482282;28;20620;-76
2024/03/06 18:57:30;;;;;;;10.45;4.43;;;;;;;;;;10491479;28;20072;-77
2024/03/06 19:02:33;;;;;;;9.23;4.40;;;;;;;;;;10514283;28;20035;-76
2024/03/06 19:07:37;;;;;;;4.55;2.38;;;;;;;;;;10512485;28;20473;-76
2024/03/06 19:12:43;;;;;;;10.95;5.10;;;;;;;;;;10518198;28;20570;-75
2024/03/06 19:17:47;;;;;;;10.25;4.82;;;;;;;;;;10525093;28;20044;-77
2024/03/06 19:22:50;;;;;;;7.03;3.95;;;;;;;;;;10515014;28;20032;-74
2024/03/06 19:27:54;;;;;;;8.85;4.85;;;;;;;;;;10502980;28;20481;-74
2024/03/06 19:32:57;;;;;;;6.47;3.00;;;;;;;;;;10505082;28;20143;-75
2024/03/06 19:38:00;;;;;;;6.95;2.30;;;;;;;;;;10507912;28;20060;-76
2024/03/06 19:43:04;;;;;;;4.10;3.08;;;;;;;;;;10499813;28;20520;-75
2024/03/06 19:48:07;;;;;;;;;;;;;;;;;;10514528;28;20105;-76
2024/03/06 19:53:10;;;;;;;4.60;2.35;;;;;;;;;;10512004;28;19920;-75
2024/03/06 19:58:15;;;;;;;10.50;4.68;;;;;;;;;;10514599;28;20527;-76
2024/03/06 20:03:18;;;;;;;9.13;4.82;;;;;;;;;;10534039;28;20601;-74
2024/03/06 20:08:22;;;;;;;5.13;2.08;;;;;;;;;;10516702;28;20040;-76
2024/03/06 20:13:26;;;;;;;10.63;5.07;;;;;;;;;;10524431;28;20059;-75
2024/03/06 20:18:29;;;;;;;14.25;5.82;;;;;;;;;;10519422;28;20501;-76
2024/03/06 20:23:34;;;;;;;4.47;2.30;;;;;;;;;;10517858;28;20722;-76
2024/03/06 20:28:40;;;;;;;12.82;5.75;;;;;;;;;;10513716;28;20047;-75
2024/03/06 20:33:44;;;;;;;12.45;5.95;;;;;;;;;;10518398;28;20413;-76
2024/03/06 20:38:47;;;;;;;11.90;4.85;;;;;;;;;;10508964;28;20137;-77
2024/03/06 20:43:51;;;;;;;11.60;5.65;;;;;;;;;;10532653;28;20123;-76
2024/03/06 20:48:54;;;;;;;10.90;4.20;;;;;;;;;;10527502;28;20068;-76
2024/03/06 20:53:59;;;;;;;10.63;5.25;;;;;;;;;;10502894;28;20171;-76
2024/03/06 20:59:03;;;;;;;9.38;4.80;;;;;;;;;;10507247;28;20044;-77
2024/03/06 21:04:06;;;;;;;9.45;4.43;;;;;;;;;;10511463;28;20048;-77
2024/03/06 21:09:08;;;;;;;10.60;4.93;;;;;;;;;;10516949;28;20055;-75
2024/03/06 21:14:12;;;;;;;4.90;2.83;;;;;;;;;;10514372;28;20540;-77
2024/03/06 21:19:16;;;;;;;9.57;4.40;;;;;;;;;;10523832;28;20102;-75
2024/03/06 21:24:19;;;;;;;6.10;3.40;;;;;;;;;;10492486;28;20067;-76
2024/03/06 21:29:25;;;;;;;8.18;3.70;;;;;;;;;;10514068;28;20032;-76
2024/03/06 21:34:27;;;;;;;7.72;3.60;;;;;;;;;;10522032;28;20040;-75
2024/03/06 21:39:30;;;;;;;6.95;3.08;;;;;;;;;;10491783;28;20533;-76
2024/03/06 21:44:34;;;;;;;12.35;5.85;;;;;;;;;;10512562;28;20085;-76
2024/03/06 21:49:37;;;;;;;;;;;;;;;;;;10511851;28;20051;-76
2024/03/06 21:54:40;;;;;;;10.98;5.63;;;;;;;;;;10511948;28;20014;-75
2024/03/06 21:59:44;;;;;;;6.68;3.78;;;;;;;;;;10526780;28;20127;-75
2024/03/06 22:04:47;;;;;;;4.28;2.28;;;;;;;;;;10522545;28;20426;-76
2024/03/06 22:09:50;;;;;;;8.45;3.38;;;;;;;;;;10535027;28;20515;-75
2024/03/06 22:14:54;;;;;;;7.32;3.67;;;;;;;;;;10517250;28;20044;-75
2024/03/06 22:19:58;;;;;;;10.20;4.88;;;;;;;;;;10513062;28;20127;-75
2024/03/06 22:25:00;;;;;;;11.10;5.18;;;;;;;;;;10523220;28;20044;-75
2024/03/06 22:30:05;;;;;;;10.85;4.80;;;;;;;;;;10517310;28;20753;-75
2024/03/06 22:35:09;;;;;;;5.32;2.92;;;;;;;;;;10521330;28;20400;-75
2024/03/06 22:40:12;;;;;;;;;;;;;;;;;;10516189;28;20055;-76
2024/03/06 22:45:17;;;;;;;15.35;6.00;;;;;;;;;;10516323;28;19920;-75
2024/03/06 22:50:19;;;;;;;13.80;5.97;;;;;;;;;;10508969;28;20055;-76
2024/03/06 22:55:22;;;;;;;8.02;2.97;;;;;;;;;;10512981;28;20040;-75
2024/03/06 23:00:29;;;;;;;10.75;5.03;;;;;;;;;;10521836;28;20412;-75
2024/03/06 23:05:32;;;;;;;15.32;6.20;;;;;;;;;;10518995;28;20066;-77
2024/03/06 23:10:34;;;;;;;12.75;6.28;;;;;;;;;;10491496;28;20028;-75
2024/03/06 23:15:39;;;;;;;13.68;5.82;;;;;;;;;;10511606;28;20169;-77
2024/03/06 23:20:42;;;;;;;15.88;6.97;;;;;;;;;;10515534;28;20071;-75
2024/03/06 23:25:44;;;;;;;12.95;5.65;;;;;;;;;;10509153;28;20494;-77
2024/03/06 23:30:48;;;;;;;11.75;5.45;;;;;;;;;;10491397;28;20029;-76
2024/03/06 23:35:51;;;;;;;12.52;5.43;;;;;;;;;;10511259;28;20104;-77
2024/03/06 23:40:54;;;;;;;6.93;3.25;;;;;;;;;;10517588;28;20047;-76
2024/03/06 23:45:58;;;;;;;15.13;6.25;;;;;;;;;;10519186;28;20673;-77
2024/03/06 23:51:01;;;;;;;16.65;7.38;;;;;;;;;;10511729;28;20036;-76
2024/03/06 23:56:04;;;;;;;13.95;5.90;;;;;;;;;;10496233;28;20048;-75
